Bottisham, United Kingdom
Current Conditions -  °F | °C
As of 12:20 PM on Sunday 23 Nov 2014 (Local Time) from EGSC Reporting Station
Moderate Rain Moderate Rain  
Wind Chill: 41°   Ceiling: 1200
Heat Index: 45°   Visibility: 4mi
Dew Point: 45°   Wind: 7mph
Humidity: 100%   Direction: 330°NNW
Pressure: 30.03"   Gusts: NA
Location:  52.22°N, 0.26°E
Report Text: EGSC 231220Z 33006KT 270V020 6000 RA SCT005 BKN012 07/07 Q1017
Loading
Personal Weather Stations






























Interactive Weather Map New forecast layout! Learn more

10-Day Weather Forecast

Advertisements
Track Severe Weather on mobile